Time;durP1;ratioP1;P1;durP2;ratioP2;P2;SDS_P1;SDS_P2;PMS_P1;PMS_P2;Temp;Humidity;BMP_temperature;BMP_pressure;BME280_temperature;BME280_humidity;BME280_pressure;Samples;Min_cycle;Max_cycle;Signal;HPM_P1;HPM_P2
2022/05/10 00:01:40;;;;;;;30.67;19.50;;;;;;;14.10;74.67;102003.38;5035379;28;20029;-80
2022/05/10 00:04:07;;;;;;;31.88;19.63;;;;;;;14.10;73.87;102005.13;5037345;28;20284;-80
2022/05/10 00:06:43;;;;;;;33.00;20.50;;;;;;;14.08;74.95;102006.91;5030856;28;20029;-80
2022/05/10 00:09:10;;;;;;;32.95;20.50;;;;;;;14.12;75.52;102012.06;5035217;28;20026;-80
2022/05/10 00:11:36;;;;;;;34.47;20.75;;;;;;;14.07;75.46;102008.66;5030958;28;20552;-80
2022/05/10 00:14:01;;;;;;;37.10;20.90;;;;;;;14.02;75.61;101996.59;5027115;28;20523;-80
2022/05/10 00:16:26;;;;;;;32.10;19.57;;;;;;;13.96;73.38;101997.59;5037710;28;20032;-80
2022/05/10 00:18:52;;;;;;;33.13;20.77;;;;;;;13.95;75.90;101995.84;5037376;28;20307;-80
2022/05/10 00:21:21;;;;;;;35.15;20.70;;;;;;;13.90;75.55;101992.50;5028840;28;20136;-80
2022/05/10 00:23:47;;;;;;;35.13;20.75;;;;;;;13.87;75.79;101996.88;5030661;28;20444;-81
2022/05/10 00:26:12;;;;;;;31.92;20.20;;;;;;;13.79;76.03;101989.19;5033260;28;20444;-81
2022/05/10 00:28:37;;;;;;;35.03;20.20;;;;;;;13.74;76.32;101985.84;5035114;28;20025;-81
2022/05/10 00:31:04;;;;;;;33.05;20.33;;;;;;;13.67;76.38;101989.44;5026388;28;20302;-81
2022/05/10 00:33:30;;;;;;;35.80;21.25;;;;;;;13.64;76.27;101986.91;5037914;28;20454;-81
2022/05/10 00:35:57;;;;;;;32.63;20.17;;;;;;;13.60;76.54;101988.69;5035291;28;20368;-81
2022/05/10 00:38:31;;;;;;;35.83;20.92;;;;;;;13.52;76.55;101980.13;5034320;28;20031;-81
2022/05/10 00:41:05;;;;;;;33.80;20.48;;;;;;;13.51;77.05;101985.41;5031873;28;20484;-81
2022/05/10 00:43:38;;;;;;;36.65;20.83;;;;;;;13.48;76.57;101986.31;5031401;28;20087;-81
2022/05/10 00:46:09;;;;;;;33.08;20.38;;;;;;;13.42;77.37;101987.28;5030242;28;20030;-81
2022/05/10 00:48:48;;;;;;;36.20;21.42;;;;;;;13.38;76.00;101984.72;5031885;28;20480;-80
2022/05/10 00:51:45;;;;;;;38.33;21.27;;;;;;;13.38;76.58;101977.78;5025227;28;20399;-80
2022/05/10 00:54:22;;;;;;;33.67;20.33;;;;;;;13.31;76.93;101985.72;5036947;28;20028;-80
2022/05/10 00:57:24;;;;;;;34.60;21.40;;;;;;;13.28;76.47;101972.75;5029091;28;20094;-80
2022/05/10 00:59:49;;;;;;;36.47;21.02;;;;;;;13.22;77.92;101970.25;5039263;28;20033;-80
2022/05/10 01:02:31;;;;;;;34.60;20.67;;;;;;;13.17;77.32;101967.72;5039477;28;20033;-80
2022/05/10 01:05:04;;;;;;;38.47;21.85;;;;;;;13.12;78.38;101963.44;5030017;28;20040;-80
2022/05/10 01:07:35;;;;;;;37.67;22.02;;;;;;;13.10;78.48;101970.44;5029415;28;20044;-80
2022/05/10 01:10:18;;;;;;;34.50;21.40;;;;;;;13.03;77.56;101967.06;5029707;28;20053;-80
2022/05/10 01:13:28;;;;;;;38.33;21.98;;;;;;;13.01;77.99;101964.50;5029594;28;20136;-80
2022/05/10 01:16:02;;;;;;;36.05;22.00;;;;;;;12.96;77.66;101961.09;4996133;28;20099;-80
2022/05/10 01:18:28;;;;;;;36.35;21.70;;;;;;;12.93;78.48;101958.53;5029028;28;20113;-81
2022/05/10 01:20:59;;;;;;;40.30;22.88;;;;;;;12.89;78.80;101959.47;5028719;28;20060;-81
2022/05/10 01:23:40;;;;;;;36.50;22.25;;;;;;;12.85;78.51;101954.31;5034314;28;20449;-81
2022/05/10 01:26:20;;;;;;;37.60;21.17;;;;;;;12.79;78.70;101942.28;5029566;28;20539;-79
2022/05/10 01:28:51;;;;;;;38.47;22.20;;;;;;;12.76;78.94;101944.06;5039930;28;20025;-79
2022/05/10 01:31:27;;;;;;;39.30;23.52;;;;;;;12.75;79.25;101937.16;5028263;28;20040;-79
2022/05/10 01:33:58;;;;;;;36.00;21.52;;;;;;;12.70;79.11;101939.81;5028170;28;20029;-79
2022/05/10 01:36:37;;;;;;;42.25;24.23;;;;;;;12.67;79.37;101939.88;5026788;28;20036;-79
2022/05/10 01:39:27;;;;;;;42.95;24.15;;;;;;;12.64;78.61;101934.69;5055435;28;20387;-81
2022/05/10 01:42:07;;;;;;;38.92;23.40;;;;;;;12.59;79.70;101939.09;5027378;28;20102;-81
2022/05/10 01:44:40;;;;;;;38.35;22.73;;;;;;;12.57;79.54;101927.84;5027976;28;20513;-81
2022/05/10 01:47:11;;;;;;;39.08;23.67;;;;;;;12.54;80.33;101933.97;5040452;28;20508;-81
2022/05/10 01:49:52;;;;;;;39.13;23.13;;;;;;;12.52;79.08;101927.94;5027729;28;20499;-81
2022/05/10 01:52:47;;;;;;;41.38;24.17;;;;;;;12.49;80.26;101919.31;5019233;28;20533;-81
2022/05/10 01:55:29;;;;;;;37.17;23.33;;;;;;;12.48;80.14;101915.00;5036003;28;20418;-80
2022/05/10 01:58:00;;;;;;;42.45;23.98;;;;;;;12.44;79.93;101908.13;5044239;28;20048;-80
2022/05/10 02:00:27;;;;;;;42.60;25.17;;;;;;;12.42;80.35;101912.50;5026811;28;20071;-80
2022/05/10 02:03:22;;;;;;;42.08;25.65;;;;;;;12.40;79.29;101917.72;5028966;28;20091;-80
2022/05/10 02:05:54;;;;;;;45.92;26.15;;;;;;;12.39;80.80;101913.38;5026219;28;20106;-80
2022/05/10 02:08:41;;;;;;;44.58;25.92;;;;;;;12.35;80.09;101906.50;5029112;28;20036;-80
2022/05/10 02:11:13;;;;;;;42.25;24.33;;;;;;;12.34;80.58;101906.53;5029073;28;20064;-80
2022/05/10 02:13:44;;;;;;;40.70;25.48;;;;;;;12.31;80.98;101910.03;5028166;28;20025;-80
2022/05/10 02:16:20;;;;;;;41.58;25.02;;;;;;;12.28;80.50;101908.31;5030935;28;20111;-80
2022/05/10 02:18:50;;;;;;;43.92;25.65;;;;;;;12.27;80.54;101909.22;5027011;28;20344;-80
2022/05/10 02:21:27;;;;;;;44.72;25.85;;;;;;;12.25;80.84;101894.53;5027913;28;20079;-80
2022/05/10 02:24:04;;;;;;;46.60;27.30;;;;;;;12.22;80.82;101892.81;5038295;28;20048;-80
2022/05/10 02:26:47;;;;;;;43.63;26.67;;;;;;;12.22;80.71;101891.94;5032776;28;20025;-80
2022/05/10 02:29:31;;;;;;;50.70;28.75;;;;;;;12.20;81.19;101885.94;5027618;28;20065;-81
2022/05/10 02:35:03;;;;;;;45.22;26.80;;;;;;;12.23;81.63;101880.66;5031523;28;20140;-81
2022/05/10 02:37:28;;;;;;;46.75;27.67;;;;;;;12.24;82.28;101877.19;5032429;28;20026;-81
2022/05/10 02:39:54;;;;;;;50.60;28.58;;;;;;;12.28;82.54;101881.50;5032654;28;20045;-81
2022/05/10 02:42:22;;;;;;;46.92;28.10;;;;;;;12.29;82.36;101870.19;5034025;28;20395;-81
2022/05/10 02:44:50;;;;;;;47.50;27.98;;;;;;;12.30;82.76;101874.50;5034722;28;20044;-81
2022/05/10 02:47:28;;;;;;;50.47;27.70;;;;;;;12.28;82.47;101871.09;5030129;28;20052;-81
2022/05/10 02:49:53;;;;;;;46.78;28.55;;;;;;;12.34;82.98;101875.34;5031336;28;20171;-81
2022/05/10 02:52:19;;;;;;;49.50;27.90;;;;;;;12.34;82.72;101865.81;5032151;28;20072;-81
2022/05/10 02:54:44;;;;;;;51.20;28.33;;;;;;;12.34;82.57;101865.81;5033883;28;20276;-81
2022/05/10 02:57:09;;;;;;;47.33;27.63;;;;;;;12.37;82.99;101860.53;5031303;28;20299;-81
2022/05/10 02:59:37;;;;;;;51.22;28.42;;;;;;;12.36;82.97;101855.34;5040163;28;20415;-81
2022/05/10 03:02:14;;;;;;;48.97;29.83;;;;;;;12.37;83.04;101857.94;5032394;28;20057;-81
2022/05/10 03:04:42;;;;;;;45.50;28.02;;;;;;;12.38;83.14;101854.47;5031648;28;20032;-81
2022/05/10 03:07:09;;;;;;;47.33;28.80;;;;;;;12.38;82.79;101857.06;5039514;28;20030;-81
2022/05/10 03:09:35;;;;;;;48.05;28.08;;;;;;;12.36;82.62;101861.41;5032032;28;20104;-81
2022/05/10 03:12:05;;;;;;;49.55;28.50;;;;;;;12.36;82.46;101856.22;5032014;28;20116;-82
2022/05/10 03:14:30;;;;;;;47.40;27.50;;;;;;;12.34;82.99;101847.59;5030937;28;20060;-81
2022/05/10 03:16:56;;;;;;;48.05;28.50;;;;;;;12.36;83.39;101851.00;5039059;28;20045;-81
2022/05/10 03:19:21;;;;;;;48.10;27.80;;;;;;;12.36;83.33;101844.94;5043895;28;20029;-80
2022/05/10 03:21:46;;;;;;;52.08;29.80;;;;;;;12.37;83.30;101846.69;5030264;28;20295;-80
2022/05/10 03:24:12;;;;;;;49.23;28.03;;;;;;;12.38;83.09;101844.06;5036799;28;20025;-80
2022/05/10 03:26:37;;;;;;;48.15;28.13;;;;;;;12.36;83.71;101843.22;5033710;28;20288;-80
2022/05/10 03:29:03;;;;;;;50.55;27.95;;;;;;;12.37;83.61;101838.88;5030020;28;20061;-80
2022/05/10 03:31:29;;;;;;;44.95;27.15;;;;;;;12.39;83.75;101839.72;5031464;28;20028;-80
2022/05/10 03:36:40;;;;;;;49.45;28.60;;;;;;;12.41;82.40;101836.22;5030906;28;20048;-80
2022/05/10 03:39:08;;;;;;;50.17;27.30;;;;;;;12.45;83.80;101835.28;5033450;28;20021;-80
2022/05/10 03:41:34;;;;;;;49.90;28.02;;;;;;;12.47;83.40;101832.66;5032265;28;20808;-80
2022/05/10 03:43:59;;;;;;;47.17;28.25;;;;;;;12.45;83.53;101826.63;5031677;28;20091;-80
2022/05/10 03:46:25;;;;;;;51.28;28.00;;;;;;;12.47;83.83;101828.34;5040845;28;20032;-80
2022/05/10 03:48:50;;;;;;;47.35;27.85;;;;;;;12.50;83.88;101833.47;5030553;28;20023;-80
2022/05/10 03:51:16;;;;;;;52.60;28.03;;;;;;;12.50;83.88;101822.19;5029822;28;20021;-80
2022/05/10 03:53:42;;;;;;;50.45;27.77;;;;;;;12.47;83.62;101820.53;5035397;28;20292;-80
2022/05/10 03:56:08;;;;;;;49.17;27.52;;;;;;;12.51;83.43;101831.72;5034231;28;20029;-80
2022/05/10 03:58:33;;;;;;;52.47;27.75;;;;;;;12.50;83.82;101830.00;5040649;28;20106;-80
2022/05/10 04:00:59;;;;;;;44.83;26.45;;;;;;;12.52;83.15;101823.91;5031318;28;20191;-80
2022/05/10 04:03:24;;;;;;;51.77;27.77;;;;;;;12.51;83.63;101818.72;5028808;28;20033;-80
2022/05/10 04:05:49;;;;;;;48.35;27.00;;;;;;;12.52;83.84;101816.09;5038464;28;20288;-80
2022/05/10 04:08:14;;;;;;;48.17;26.87;;;;;;;12.53;84.22;101814.38;5029517;28;20111;-81
2022/05/10 04:10:40;;;;;;;52.40;28.30;;;;;;;12.56;83.86;101822.97;5033376;28;20284;-81
2022/05/10 04:13:07;;;;;;;48.75;27.85;;;;;;;12.58;84.20;101813.41;5032361;28;20048;-81
2022/05/10 04:15:32;;;;;;;49.65;27.52;;;;;;;12.60;84.25;101821.19;5030879;28;20021;-81
2022/05/10 04:17:57;;;;;;;47.88;28.02;;;;;;;12.63;83.48;101815.91;5030116;28;20025;-81
2022/05/10 04:20:22;;;;;;;49.13;27.33;;;;;;;12.68;83.86;101815.84;5029754;28;20034;-81
2022/05/10 04:22:48;;;;;;;50.77;27.60;;;;;;;12.70;82.26;101809.72;5033311;28;20085;-81
2022/05/10 04:25:17;;;;;;;51.00;27.63;;;;;;;12.76;83.31;101808.78;5029626;28;20711;-81
2022/05/10 04:27:42;;;;;;;50.17;28.08;;;;;;;12.81;84.28;101810.41;5028626;28;20315;-81
2022/05/10 04:30:08;;;;;;;54.28;28.88;;;;;;;12.85;83.97;101809.47;5031059;28;20079;-81
2022/05/10 04:32:36;;;;;;;51.13;28.20;;;;;;;12.92;83.95;101812.81;5031735;28;20056;-81
2022/05/10 04:35:02;;;;;;;50.95;28.20;;;;;;;12.98;84.21;101810.09;5038287;28;20120;-81
2022/05/10 04:37:27;;;;;;;48.58;28.33;;;;;;;13.03;84.05;101808.31;5032982;28;20124;-81
2022/05/10 04:42:36;;;;;;;50.95;27.33;;;;;;;13.18;83.18;101804.56;5028475;28;20294;-81
2022/05/10 04:45:01;;;;;;;51.63;26.80;;;;;;;13.26;82.62;101802.66;5029805;28;20029;-81
2022/05/10 04:47:26;;;;;;;49.42;27.95;;;;;;;13.30;83.21;101792.19;5028494;28;20284;-81
2022/05/10 04:49:52;;;;;;;54.83;26.90;;;;;;;13.39;81.54;101797.19;5033927;28;20025;-81
2022/05/10 04:52:17;;;;;;;49.93;27.23;;;;;;;13.47;82.53;101793.56;5028719;28;20279;-81
2022/05/10 04:54:42;;;;;;;53.40;27.07;;;;;;;13.58;82.92;101796.84;5030286;28;20283;-81
2022/05/10 04:57:08;;;;;;;50.70;26.33;;;;;;;13.62;82.33;101788.91;5031885;28;20396;-81
2022/05/10 04:59:33;;;;;;;49.65;26.13;;;;;;;13.70;82.20;101780.94;5030193;28;20823;-81
2022/05/10 05:01:58;;;;;;;52.70;27.47;;;;;;;13.82;83.06;101794.56;5030511;28;20108;-81
2022/05/10 05:04:24;;;;;;;48.53;25.80;;;;;;;13.88;82.07;101790.09;5031289;28;20671;-81
2022/05/10 05:06:51;;;;;;;48.27;26.77;;;;;;;13.97;82.08;101793.38;5032213;28;20311;-81
2022/05/10 05:09:16;;;;;;;49.75;25.38;;;;;;;14.05;79.51;101795.81;5029866;28;20349;-81
2022/05/10 05:11:42;;;;;;;45.90;25.23;;;;;;;14.14;79.68;101792.97;5028685;28;20042;-81
2022/05/10 05:14:09;;;;;;;49.07;25.83;;;;;;;14.23;79.57;101795.38;5029721;28;20090;-81
2022/05/10 05:16:34;;;;;;;46.30;24.92;;;;;;;14.34;78.56;101793.34;5028870;28;20280;-81
2022/05/10 05:18:59;;;;;;;44.27;25.50;;;;;;;14.43;79.77;101798.38;5035462;28;20029;-81
2022/05/10 05:21:25;;;;;;;44.83;24.63;;;;;;;14.51;79.12;101795.59;5020269;28;20288;-81
2022/05/10 05:23:50;;;;;;;50.00;25.25;;;;;;;14.59;80.57;101796.28;5034915;28;20444;-81
2022/05/10 05:26:16;;;;;;;51.70;25.80;;;;;;;14.67;78.70;101799.50;5030992;28;20063;-81
2022/05/10 05:28:41;;;;;;;54.17;26.05;;;;;;;14.74;79.63;101801.06;5026933;28;20299;-80
2022/05/10 05:31:08;;;;;;;45.40;24.97;;;;;;;14.78;79.81;101796.66;5031412;28;20056;-80
2022/05/10 05:33:33;;;;;;;47.45;25.10;;;;;;;14.86;78.87;101798.19;5044420;28;20287;-80
2022/05/10 05:35:58;;;;;;;49.53;25.00;;;;;;;14.92;78.18;101803.22;5038351;28;20029;-80
2022/05/10 05:38:26;;;;;;;50.50;25.05;;;;;;;14.98;79.57;101799.59;5028366;28;20295;-80
2022/05/10 05:40:51;;;;;;;48.13;24.77;;;;;;;15.07;77.49;101795.88;5026833;28;20576;-80
2022/05/10 05:43:21;;;;;;;50.33;25.70;;;;;;;15.16;78.06;101796.47;5029261;28;20033;-80
2022/05/10 05:45:48;;;;;;;47.83;25.27;;;;;;;15.25;78.52;101798.84;5027179;28;20323;-80
2022/05/10 05:48:13;;;;;;;46.08;24.30;;;;;;;15.34;75.98;101787.28;5028622;28;20488;-80
2022/05/10 05:50:39;;;;;;;46.75;24.92;;;;;;;15.50;77.42;101796.38;5023682;28;20033;-80
2022/05/10 05:53:05;;;;;;;54.13;25.48;;;;;;;15.61;77.24;101793.50;5038369;28;20514;-80
2022/05/10 05:55:30;;;;;;;47.88;24.75;;;;;;;15.73;75.90;101791.38;5031009;28;20051;-80
2022/05/10 05:57:57;;;;;;;42.25;24.90;;;;;;;15.83;74.29;101789.34;5028682;28;20053;-80
2022/05/10 06:00:25;;;;;;;41.55;23.70;;;;;;;15.95;74.71;101788.13;5035878;28;20097;-81
2022/05/10 06:02:51;;;;;;;44.33;24.60;;;;;;;16.04;74.81;101786.06;5030227;28;20068;-81
2022/05/10 06:05:17;;;;;;;42.80;24.80;;;;;;;16.18;73.60;101788.25;5036896;28;20135;-81
2022/05/10 06:07:43;;;;;;;45.13;25.13;;;;;;;16.38;73.45;101782.38;5028469;28;20507;-81
2022/05/10 06:10:10;;;;;;;43.28;24.23;;;;;;;16.58;73.65;101769.50;5027373;28;20037;-81
2022/05/10 06:12:36;;;;;;;44.58;24.92;;;;;;;16.76;71.32;101770.66;5029303;28;20100;-81
2022/05/10 06:15:07;;;;;;;38.97;23.63;;;;;;;16.90;73.83;101768.41;5028263;28;20055;-82
2022/05/10 06:17:33;;;;;;;39.78;24.20;;;;;;;17.01;72.36;101770.66;5028500;28;20456;-81
2022/05/10 06:19:58;;;;;;;43.72;24.80;;;;;;;17.12;71.02;101779.00;5029218;28;20530;-81
2022/05/10 06:22:23;;;;;;;37.35;23.92;;;;;;;17.23;71.43;101775.06;5018057;28;20091;-81
2022/05/10 06:24:49;;;;;;;35.03;23.27;;;;;;;17.34;70.73;101774.66;5027468;28;20021;-81
2022/05/10 06:27:16;;;;;;;35.83;23.63;;;;;;;17.56;70.21;101778.22;5033594;28;20080;-81
2022/05/10 06:29:43;;;;;;;37.75;23.45;;;;;;;17.72;70.90;101770.66;5021994;28;20298;-81
2022/05/10 06:32:08;;;;;;;32.42;22.13;;;;;;;17.86;70.20;101770.97;5024587;28;20404;-81
2022/05/10 06:34:33;;;;;;;36.30;21.63;;;;;;;17.98;70.66;101773.13;5016980;28;20472;-81
2022/05/10 06:36:59;;;;;;;33.58;22.10;;;;;;;18.05;68.30;101771.09;5031380;28;20397;-81
2022/05/10 06:39:24;;;;;;;34.67;21.80;;;;;;;18.15;68.43;101762.78;5032486;28;20021;-81
2022/05/10 06:41:49;;;;;;;35.73;23.27;;;;;;;18.24;68.13;101763.31;5020622;28;20284;-81
2022/05/10 06:44:14;;;;;;;32.17;22.30;;;;;;;18.32;68.52;101763.88;5033634;28;20314;-82
2022/05/10 06:46:40;;;;;;;34.43;22.43;;;;;;;18.38;68.95;101763.63;5019078;28;20692;-81
2022/05/10 06:49:05;;;;;;;35.55;21.98;;;;;;;18.46;68.59;101756.28;5018979;28;20359;-81
2022/05/10 06:51:31;;;;;;;31.45;21.13;;;;;;;18.54;68.32;101757.69;5023319;28;20112;-82
2022/05/10 06:53:57;;;;;;;30.67;21.27;;;;;;;18.65;67.22;101754.63;5026230;28;20507;-81
2022/05/10 06:56:23;;;;;;;32.58;21.73;;;;;;;18.81;66.08;101758.31;5027488;28;20025;-81
2022/05/10 06:58:49;;;;;;;32.95;20.83;;;;;;;18.96;67.09;101755.94;5036813;28;20026;-81
2022/05/10 07:01:14;;;;;;;29.42;20.52;;;;;;;19.13;64.07;101750.75;5027109;28;20056;-81
2022/05/10 07:03:49;;;;;;;29.48;20.23;;;;;;;19.26;65.30;101752.78;5024747;28;20494;-82
2022/05/10 07:06:18;;;;;;;27.25;18.73;;;;;;;19.51;63.53;101754.34;5016759;28;20681;-82
2022/05/10 07:08:43;;;;;;;28.00;18.67;;;;;;;19.70;64.30;101753.41;5022912;28;20029;-82
2022/05/10 07:11:11;;;;;;;27.98;18.60;;;;;;;19.83;63.52;101740.50;5024924;28;20350;-82
2022/05/10 07:13:37;;;;;;;25.92;18.58;;;;;;;19.90;62.07;101738.44;5031045;28;20112;-82
2022/05/10 07:16:02;;;;;;;24.25;17.23;;;;;;;19.97;61.09;101735.44;5033580;28;20176;-82
2022/05/10 07:18:28;;;;;;;26.88;18.15;;;;;;;20.14;62.95;101737.22;5035351;28;20080;-82
2022/05/10 07:20:53;;;;;;;29.00;18.13;;;;;;;20.61;61.13;101729.59;5025838;28;20083;-82
2022/05/10 07:23:26;;;;;;;25.88;17.40;;;;;;;21.33;61.07;101731.13;5037108;28;20037;-82
2022/05/10 07:25:51;;;;;;;27.65;17.17;;;;;;;21.81;58.05;101727.53;5031296;28;20483;-82
2022/05/10 07:28:16;;;;;;;25.23;17.23;;;;;;;21.94;56.66;101732.03;5033005;28;20069;-81
2022/05/10 07:30:42;;;;;;;22.37;16.97;;;;;;;22.11;58.03;101722.34;5031527;28;20021;-80
2022/05/10 07:33:08;;;;;;;23.85;16.35;;;;;;;22.30;56.99;101728.25;5030704;28;20825;-81
2022/05/10 07:38:18;;;;;;;;;;;;;;;22.79;60.49;101723.59;5031801;28;20392;-81
2022/05/10 07:40:47;;;;;;;24.15;16.48;;;;;;;23.21;55.49;101726.22;5029080;28;19921;-81
2022/05/10 07:43:13;;;;;;;23.25;16.48;;;;;;;23.36;52.20;101716.47;5031009;28;20025;-81
2022/05/10 07:45:40;;;;;;;23.25;16.40;;;;;;;23.29;53.93;101722.22;5031853;28;20183;-81
2022/05/10 07:48:06;;;;;;;22.25;16.45;;;;;;;23.13;52.59;101714.44;5030382;28;20061;-81
2022/05/10 07:50:32;;;;;;;23.70;16.45;;;;;;;22.87;54.77;101718.66;5031614;28;20108;-80
2022/05/10 07:52:59;;;;;;;24.25;16.05;;;;;;;22.76;52.35;101716.69;5031406;28;20383;-80
2022/05/10 07:55:25;;;;;;;22.45;16.27;;;;;;;22.72;55.03;101712.47;5020577;28;20132;-80
2022/05/10 07:57:50;;;;;;;22.15;16.65;;;;;;;22.78;53.37;101717.44;5034102;28;20059;-78
2022/05/10 08:00:16;;;;;;;24.63;17.13;;;;;;;22.77;54.44;101713.09;5027827;28;20025;-78
2022/05/10 08:02:43;;;;;;;25.52;15.85;;;;;;;22.91;51.90;101716.69;5030921;28;20025;-78
2022/05/10 08:05:21;;;;;;;22.55;15.38;;;;;;;22.94;53.43;101714.69;5023744;28;20021;-78
2022/05/10 08:07:47;;;;;;;22.73;15.90;;;;;;;22.87;53.92;101701.94;5035466;28;20065;-78
2022/05/10 08:10:14;;;;;;;20.35;15.35;;;;;;;23.00;53.84;101705.53;5030409;28;20183;-83
2022/05/10 08:12:39;;;;;;;19.63;14.88;;;;;;;23.06;50.86;101692.81;5036509;28;20033;-83
2022/05/10 08:15:06;;;;;;;21.02;15.85;;;;;;;23.35;51.02;101700.69;5029959;28;20028;-83
2022/05/10 08:17:31;;;;;;;19.38;14.05;;;;;;;23.81;51.55;101699.47;5030609;28;20029;-83
2022/05/10 08:19:57;;;;;;;21.92;14.65;;;;;;;24.08;51.11;101704.75;5029424;28;20110;-83
2022/05/10 08:22:22;;;;;;;19.08;13.65;;;;;;;24.21;52.03;101699.50;5030042;28;20036;-83
2022/05/10 08:24:48;;;;;;;18.40;13.30;;;;;;;24.20;49.53;101709.25;5029959;28;20028;-83
2022/05/10 08:27:13;;;;;;;17.80;13.40;;;;;;;24.01;50.64;101704.31;5029633;28;20508;-83
2022/05/10 08:29:38;;;;;;;21.83;13.68;;;;;;;23.93;49.32;101708.41;5046080;28;20112;-83
2022/05/10 08:32:04;;;;;;;19.53;12.27;;;;;;;23.82;48.76;101695.84;5028188;28;20156;-83
2022/05/10 08:34:29;;;;;;;18.25;12.35;;;;;;;23.66;47.44;101695.16;5029263;28;20040;-83
2022/05/10 08:36:55;;;;;;;21.63;12.90;;;;;;;23.53;50.10;101699.56;5034062;28;20495;-83
2022/05/10 08:39:22;;;;;;;14.57;11.15;;;;;;;23.35;48.08;101704.16;5030868;28;20083;-83
2022/05/10 08:41:59;;;;;;;16.73;11.40;;;;;;;23.19;48.95;101695.53;5030262;28;20029;-82
2022/05/10 08:44:27;;;;;;;18.10;11.60;;;;;;;22.90;48.75;101688.53;5029036;28;20022;-83
2022/05/10 08:46:57;;;;;;;14.95;11.32;;;;;;;22.76;48.85;101684.94;5029367;28;20171;-82
2022/05/10 08:49:46;;;;;;;18.50;11.30;;;;;;;22.69;51.38;101688.03;5030025;28;20028;-83
2022/05/10 08:52:14;;;;;;;16.65;10.73;;;;;;;22.61;49.69;101680.56;5028276;28;20102;-81
2022/05/10 08:54:41;;;;;;;15.02;9.90;;;;;;;22.52;50.32;101677.63;5021395;28;20569;-80
2022/05/10 08:57:17;;;;;;;20.45;10.65;;;;;;;22.57;48.80;101676.41;5030081;28;20057;-80
2022/05/10 09:00:02;;;;;;;13.07;9.35;;;;;;;22.65;49.85;101678.59;5016971;28;20108;-81
2022/05/10 09:02:40;;;;;;;14.10;9.45;;;;;;;22.78;52.18;101679.56;5029821;28;20033;-80
2022/05/10 09:05:14;;;;;;;17.42;10.32;;;;;;;23.01;49.34;101678.13;5029814;28;20341;-80
2022/05/10 09:07:51;;;;;;;14.35;10.02;;;;;;;23.22;49.81;101674.16;5027081;28;20087;-81
2022/05/10 09:10:22;;;;;;;15.57;10.05;;;;;;;23.50;47.97;101671.47;5030329;28;20059;-82
2022/05/10 09:12:58;;;;;;;14.43;9.27;;;;;;;23.59;46.73;101675.34;5025867;28;20387;-81
2022/05/10 09:15:25;;;;;;;15.68;9.60;;;;;;;23.61;45.05;101663.66;5028468;28;20025;-81
2022/05/10 09:17:51;;;;;;;16.42;9.52;;;;;;;23.52;46.66;101663.44;5029768;28;20013;-81
2022/05/10 09:20:16;;;;;;;13.43;9.13;;;;;;;23.61;50.20;101670.75;5029888;28;20028;-81
2022/05/10 09:23:03;;;;;;;15.13;9.73;;;;;;;23.85;46.27;101668.31;5028910;28;20021;-81
2022/05/10 09:25:38;;;;;;;16.08;10.05;;;;;;;24.05;46.86;101659.91;5029765;28;20430;-81
2022/05/10 09:28:16;;;;;;;15.32;9.50;;;;;;;24.34;45.59;101657.97;5029259;28;20063;-81
2022/05/10 09:34:45;;;;;;;16.65;9.45;;;;;;;24.67;45.25;101662.75;5027669;28;20111;-81
2022/05/10 09:36:10;;;;;;;14.68;9.48;;;;;;;24.80;41.90;101640.56;5029786;28;20186;-82
2022/05/10 09:38:47;;;;;;;12.60;9.07;;;;;;;24.73;43.54;101633.97;5028144;28;20021;-82
2022/05/10 09:41:43;;;;;;;16.83;9.02;;;;;;;24.73;44.70;101644.59;5019977;28;20121;-81
2022/05/10 09:44:27;;;;;;;13.15;8.82;;;;;;;24.66;45.83;101647.78;5029357;28;20042;-81
2022/05/10 09:47:11;;;;;;;15.43;9.35;;;;;;;24.70;44.44;101646.63;5029365;28;20029;-80
2022/05/10 09:49:37;;;;;;;;;;;;;;;24.83;45.42;101643.97;5023145;28;20030;-82
2022/05/10 09:52:05;;;;;;;17.42;8.90;;;;;;;24.73;41.97;101631.34;5019552;28;19919;-82
2022/05/10 09:54:38;;;;;;;16.60;9.85;;;;;;;24.85;42.10;101634.91;5034221;28;20025;-82
2022/05/10 09:57:06;;;;;;;16.02;10.32;;;;;;;24.92;42.88;101640.66;5024585;28;20463;-81
2022/05/10 09:59:45;;;;;;;11.93;9.07;;;;;;;25.07;44.15;101636.94;5033217;28;20036;-81
2022/05/10 10:02:13;;;;;;;17.85;9.77;;;;;;;25.03;41.32;101632.81;5041825;28;20029;-81
2022/05/10 10:04:41;;;;;;;16.90;10.02;;;;;;;25.02;43.54;101631.97;5031214;28;20116;-81
2022/05/10 10:07:13;;;;;;;16.35;10.20;;;;;;;25.23;42.41;101629.56;5032011;28;20100;-81
2022/05/10 10:09:41;;;;;;;17.60;9.82;;;;;;;25.50;41.87;101630.19;5027003;28;20115;-82
2022/05/10 10:12:15;;;;;;;14.00;9.88;;;;;;;25.61;42.59;101616.13;5024549;28;20048;-82
2022/05/10 10:14:46;;;;;;;17.20;9.68;;;;;;;25.67;40.42;101625.47;5035481;28;20104;-81
2022/05/10 10:17:20;;;;;;;16.98;10.23;;;;;;;25.64;41.19;101623.03;5027436;28;20072;-82
2022/05/10 10:19:51;;;;;;;18.33;10.83;;;;;;;25.44;40.79;101625.34;5027548;28;20025;-82
2022/05/10 10:22:27;;;;;;;15.60;10.15;;;;;;;25.28;41.87;101611.50;5026133;28;20116;-82
2022/05/10 10:25:15;;;;;;;14.60;9.55;;;;;;;25.38;42.01;101611.69;5032841;28;20025;-81
2022/05/10 10:27:51;;;;;;;14.98;9.90;;;;;;;25.71;41.88;101613.66;5027252;28;20066;-83
2022/05/10 10:30:31;;;;;;;16.98;9.77;;;;;;;26.02;41.70;101614.84;5032796;28;20029;-82
2022/05/10 10:33:11;;;;;;;12.27;10.15;;;;;;;26.33;41.06;101608.91;5030736;28;20099;-82
2022/05/10 10:35:42;;;;;;;20.40;10.30;;;;;;;26.62;39.27;101596.81;5027587;28;20025;-82
2022/05/10 10:38:20;;;;;;;16.95;10.32;;;;;;;26.75;39.03;101608.16;5042400;28;20026;-82
2022/05/10 10:41:02;;;;;;;15.25;9.10;;;;;;;26.83;40.43;101588.94;5027282;28;20423;-81
2022/05/10 10:43:50;;;;;;;13.13;9.07;;;;;;;26.96;39.92;101587.00;5030157;28;20032;-82
2022/05/10 10:46:25;;;;;;;19.40;9.45;;;;;;;27.11;37.51;101590.25;5029783;28;20037;-83
2022/05/10 10:48:56;;;;;;;45.22;9.95;;;;;;;27.04;36.33;101602.34;5032289;28;20383;-82
2022/05/10 10:51:27;;;;;;;15.35;8.63;;;;;;;26.87;35.20;101594.88;5029188;28;20025;-82
2022/05/10 10:53:53;;;;;;;15.70;8.23;;;;;;;26.78;35.18;101585.81;5032418;28;20020;-82
2022/05/10 10:56:42;;;;;;;13.93;8.10;;;;;;;26.70;36.05;101585.56;5040399;28;20028;-82
2022/05/10 10:59:26;;;;;;;16.13;8.57;;;;;;;26.58;36.18;101587.38;5036644;28;20108;-82
2022/05/10 11:02:16;;;;;;;14.88;8.48;;;;;;;26.57;37.38;101587.50;5028450;28;20033;-81
2022/05/10 11:05:06;;;;;;;18.00;9.20;;;;;;;26.67;37.32;101573.38;5032394;28;20029;-81
2022/05/10 11:07:54;;;;;;;13.80;8.23;;;;;;;26.74;37.14;101585.22;5038244;28;20032;-81
2022/05/10 11:10:44;;;;;;;19.70;9.23;;;;;;;26.71;36.81;101580.13;5034051;28;20064;-81
2022/05/10 11:13:31;;;;;;;12.75;8.25;;;;;;;26.86;37.85;101571.88;5023875;28;20501;-81
2022/05/10 11:16:11;;;;;;;15.20;8.82;;;;;;;26.98;37.19;101573.59;5034357;28;20079;-81
2022/05/10 11:18:56;;;;;;;20.27;9.10;;;;;;;27.09;35.28;101570.91;5030432;28;20159;-78
2022/05/10 11:21:43;;;;;;;15.57;9.05;;;;;;;27.11;36.05;101568.94;5039240;28;20083;-77
2022/05/10 11:24:39;;;;;;;12.30;8.75;;;;;;;27.15;37.06;101567.75;5031264;28;20056;-77
2022/05/10 11:27:17;;;;;;;19.30;9.38;;;;;;;27.16;34.83;101563.28;5031079;28;20462;-78
2022/05/10 11:30:08;;;;;;;14.50;9.30;;;;;;;27.10;37.71;101548.63;5031274;28;20468;-75
2022/05/10 11:32:58;;;;;;;13.68;8.88;;;;;;;27.17;36.56;101557.78;5049010;28;20045;-77
2022/05/10 11:36:02;;;;;;;14.48;9.48;;;;;;;27.18;36.88;101558.66;5025227;28;20087;-77
2022/05/10 11:39:01;;;;;;;14.70;8.85;;;;;;;27.00;36.79;101553.88;5030470;28;20014;-77
2022/05/10 11:41:47;;;;;;;15.88;9.32;;;;;;;26.84;36.31;101561.38;5036165;28;20040;-77
2022/05/10 11:44:45;;;;;;;13.48;9.60;;;;;;;26.84;37.29;101541.88;5031672;28;20113;-77